Eliseu Martins, Brazil
Current Conditions -  °F | °C
As of 1:00 PM on Friday 24 Oct 2014 (Local Time) from SBTE Reporting Station
Scattered Clouds Scattered Clouds  
Wind Chill: 95°   Ceiling: Unl
Heat Index: 97°   Visibility: 6mi
Dew Point: 64°   Wind: 9mph
Humidity: 36%   Direction: 120°ESE
Pressure: 29.8"   Gusts: NA
Location:  8.09°S, 43.67°W
Report Text: SBTE 241600Z 12008KT 9999 SCT030 35/18 Q1009
Loading
Personal Weather Stations






























Interactive Weather Map
Tropical Storm Tracking
New forecast layout! Learn more

10-Day Weather Forecast

Advertisements
Track Severe Weather on mobile